createdAt,value
2023-04-03T00:02:33.647Z,99755.00
2023-04-03T00:05:35.392Z,99754.13
2023-04-03T00:08:37.150Z,99762.81
2023-04-03T00:11:40.148Z,99767.19
2023-04-03T00:14:42.008Z,99768.03
2023-04-03T00:17:43.841Z,99772.41
2023-04-03T00:20:45.546Z,99773.25
2023-04-03T00:23:47.248Z,99777.63
2023-04-03T00:26:50.596Z,99779.34
2023-04-03T00:29:54.303Z,99784.59
2023-04-03T00:32:56.541Z,99787.16
2023-04-03T00:35:58.397Z,99785.34
2023-04-03T00:39:00.323Z,99789.72
2023-04-03T00:42:05.530Z,99787.97
2023-04-03T00:45:28.113Z,99780.91
2023-04-03T00:48:31.689Z,99787.03
2023-04-03T00:51:33.658Z,99791.38
2023-04-03T00:54:37.060Z,99790.44
2023-04-03T00:57:41.153Z,99793.00
2023-04-03T01:00:48.588Z,99790.31
2023-04-03T01:03:51.210Z,99794.69
2023-04-03T01:06:53.222Z,99791.16
2023-04-03T01:09:57.591Z,99792.00
2023-04-03T01:13:00.791Z,99799.88
2023-04-03T01:16:04.325Z,99787.53
2023-04-03T01:19:09.519Z,99798.88
2023-04-03T01:22:19.290Z,99790.97
2023-04-03T01:25:20.937Z,99787.41
2023-04-03T01:28:25.313Z,99796.19
2023-04-03T01:31:28.902Z,99790.00
2023-04-03T01:34:33.029Z,99789.03
2023-04-03T01:37:35.800Z,99789.91
2023-04-03T01:40:38.112Z,99787.31
2023-04-03T01:43:40.524Z,99789.09
2023-04-03T01:46:43.366Z,99786.38
2023-04-03T01:49:46.741Z,99786.25
2023-04-03T01:52:48.508Z,99787.22
2023-04-03T01:55:50.439Z,99783.69
2023-04-03T01:58:52.586Z,99792.38
2023-04-03T02:01:54.255Z,99787.06
2023-04-03T02:04:57.233Z,99785.31
2023-04-03T02:07:58.824Z,99790.56
2023-04-03T02:11:00.876Z,99788.81
2023-04-03T02:14:02.965Z,99789.63
2023-04-03T02:17:09.803Z,99788.75
2023-04-03T02:20:13.059Z,99786.09
2023-04-03T02:23:15.047Z,99791.28
2023-04-03T02:26:16.813Z,99794.78
2023-04-03T02:29:20.751Z,99793.81
2023-04-03T02:32:22.717Z,99799.94
2023-04-03T02:35:26.083Z,99792.06
2023-04-03T02:38:29.813Z,99806.03
2023-04-03T02:41:36.042Z,99800.72
2023-04-03T02:44:40.385Z,99799.75
2023-04-03T02:47:42.382Z,99809.34
2023-04-03T02:50:46.288Z,99808.47
2023-04-03T02:53:48.001Z,99807.47
2023-04-03T02:56:54.576Z,99806.63
2023-04-03T02:59:56.276Z,99808.38
2023-04-03T03:02:58.068Z,99813.56
2023-04-03T03:06:05.392Z,99810.78
2023-04-03T03:09:07.405Z,99806.38
2023-04-03T03:12:09.121Z,99816.88
2023-04-03T03:15:11.362Z,99810.75
2023-04-03T03:18:13.404Z,99817.72
2023-04-03T03:21:16.764Z,99828.03
2023-04-03T03:24:18.503Z,99822.72
2023-04-03T03:27:20.257Z,99827.97
2023-04-03T03:30:21.998Z,99828.66
2023-04-03T03:33:23.841Z,99827.75
2023-04-03T03:36:27.129Z,99833.22
2023-04-03T03:39:29.331Z,99820.91
2023-04-03T03:42:32.157Z,99822.69
2023-04-03T03:45:33.892Z,99821.78
2023-04-03T03:48:35.703Z,99824.47
2023-04-03T03:51:38.962Z,99820.97
2023-04-03T03:54:41.546Z,99822.78
2023-04-03T03:57:43.486Z,99830.63
2023-04-03T04:00:46.126Z,99822.72
2023-04-03T04:03:47.963Z,99824.41
2023-04-03T04:06:55.739Z,99828.75
2023-04-03T04:09:57.416Z,99830.47
2023-04-03T04:12:59.063Z,99833.91
2023-04-03T04:16:03.234Z,99823.41
2023-04-03T04:19:07.601Z,99828.63
2023-04-03T04:22:12.621Z,99834.75
2023-04-03T04:25:14.586Z,99829.47
2023-04-03T04:28:16.968Z,99824.16
2023-04-03T04:31:19.242Z,99828.44
2023-04-03T04:34:21.670Z,99829.25
2023-04-03T04:37:24.835Z,99833.66
2023-04-03T04:40:27.809Z,99831.03
2023-04-03T04:43:29.658Z,99837.06
2023-04-03T04:46:31.525Z,99837.00
2023-04-03T04:49:34.517Z,99838.66
2023-04-03T04:52:37.793Z,99842.16
2023-04-03T04:55:40.268Z,99848.28
2023-04-03T04:58:42.522Z,99850.88
2023-04-03T05:01:44.169Z,99852.66
2023-04-03T05:04:52.675Z,99852.66
2023-04-03T05:07:59.999Z,99854.41
2023-04-03T05:11:01.865Z,99858.75
2023-04-03T05:14:07.447Z,99857.00
2023-04-03T05:17:10.369Z,99857.91
2023-04-03T05:20:16.015Z,99868.38
2023-04-03T05:23:22.657Z,99865.72
2023-04-03T05:26:24.481Z,99862.22
2023-04-03T05:29:26.345Z,99864.91
2023-04-03T05:32:29.836Z,99871.03
2023-04-03T05:35:45.251Z,99871.94
2023-04-03T05:38:53.770Z,99872.91
2023-04-03T05:41:55.788Z,99872.97
2023-04-03T05:44:58.084Z,99878.22
2023-04-03T05:48:00.182Z,99887.94
2023-04-03T05:51:02.789Z,99888.06
2023-04-03T05:54:10.881Z,99892.47
2023-04-03T05:57:13.006Z,99893.47
2023-04-03T06:00:16.932Z,99906.63
2023-04-03T06:03:26.619Z,99903.31
2023-04-03T06:06:43.595Z,99910.50
2023-04-03T06:09:46.713Z,99911.56
2023-04-03T06:12:48.331Z,99914.19
2023-04-03T06:15:50.240Z,99910.69
2023-04-03T06:18:52.290Z,99923.03
2023-04-03T06:21:53.903Z,99927.66
2023-04-03T06:24:57.465Z,99925.16
2023-04-03T06:27:59.113Z,99928.69
2023-04-03T06:31:00.808Z,99923.56
2023-04-03T06:34:02.875Z,99932.38
2023-04-03T06:37:04.592Z,99929.91
2023-04-03T06:40:15.649Z,99935.25
2023-04-03T06:43:17.536Z,99934.56
2023-04-03T06:46:20.257Z,99947.72
2023-04-03T06:49:22.679Z,99944.41
2023-04-03T06:52:24.521Z,99945.31
2023-04-03T06:55:27.834Z,99945.44
2023-04-03T06:58:29.362Z,99963.13
2023-04-03T07:01:31.082Z,99966.75
2023-04-03T07:04:33.006Z,99970.28
2023-04-03T07:07:35.418Z,99978.97
2023-04-03T07:10:38.782Z,99978.09
2023-04-03T07:13:40.397Z,99979.91
2023-04-03T07:16:42.839Z,99974.78
2023-04-03T07:19:44.576Z,99991.28
2023-04-03T07:22:46.533Z,99988.44
2023-04-03T07:25:52.698Z,99988.47
2023-04-03T07:28:54.323Z,99995.84
2023-04-03T07:31:57.095Z,100009.03
2023-04-03T07:34:58.677Z,100004.94
2023-04-03T07:38:00.515Z,100013.09
2023-04-03T07:41:04.261Z,100006.09
2023-04-03T07:44:06.611Z,100003.50
2023-04-03T07:47:08.919Z,99989.53
2023-04-03T07:50:11.063Z,100014.34
2023-04-03T07:53:12.633Z,100012.63
2023-04-03T07:56:16.085Z,100014.28
2023-04-03T07:59:18.358Z,100018.59
2023-04-03T08:02:19.969Z,100023.00
2023-04-03T08:05:22.677Z,100018.75
2023-04-03T08:08:24.372Z,100024.91
2023-04-03T08:11:28.293Z,100018.75
2023-04-03T08:14:31.297Z,100020.59
2023-04-03T08:20:53.996Z,100028.06
2023-04-03T08:23:55.763Z,100022.84
2023-04-03T08:26:58.839Z,100025.44
2023-04-03T08:30:01.136Z,100018.53
2023-04-03T08:33:03.535Z,100018.56
2023-04-03T08:36:05.889Z,100014.22
2023-04-03T08:39:07.620Z,100019.50
2023-04-03T08:42:16.598Z,100023.22
2023-04-03T08:45:20.380Z,100018.81
2023-04-03T08:48:25.036Z,100013.66
2023-04-03T08:51:27.152Z,100016.34
2023-04-03T08:54:32.918Z,100020.69
2023-04-03T08:57:39.860Z,100024.22
2023-04-03T09:00:46.521Z,100023.44
2023-04-03T09:03:48.468Z,100019.06
2023-04-03T09:06:54.126Z,100020.84
2023-04-03T09:09:56.430Z,100019.94
2023-04-03T09:13:02.402Z,100017.34
2023-04-03T09:16:07.180Z,100019.09
2023-04-03T09:19:14.032Z,100009.47
2023-04-03T09:22:18.736Z,100017.41
2023-04-03T09:25:23.083Z,100013.03
2023-04-03T09:28:27.880Z,100013.94
2023-04-03T09:31:36.553Z,100014.81
2023-04-03T09:34:38.300Z,100017.44
2023-04-03T09:37:44.220Z,100019.22
2023-04-03T09:40:46.932Z,100006.00
2023-04-03T09:43:54.915Z,99998.09
2023-04-03T09:46:56.681Z,100006.91
2023-04-03T09:50:20.596Z,100001.59
2023-04-03T09:53:27.764Z,99996.28
2023-04-03T09:56:30.644Z,100000.66
2023-04-03T09:59:34.074Z,99999.81
2023-04-03T10:02:39.410Z,99997.22
2023-04-03T10:05:42.126Z,99991.91
2023-04-03T10:08:43.735Z,99987.44
2023-04-03T10:11:58.186Z,99982.19
2023-04-03T10:15:04.426Z,99997.16
2023-04-03T10:18:21.779Z,99986.63
2023-04-03T10:21:33.642Z,99989.22
2023-04-03T10:24:37.559Z,99983.06
2023-04-03T10:27:46.349Z,99977.72
2023-04-03T10:30:53.499Z,99979.38
2023-04-03T10:34:01.130Z,99966.94
2023-04-03T10:37:06.175Z,99971.38
2023-04-03T10:40:15.806Z,99972.22
2023-04-03T10:43:20.563Z,99971.44
2023-04-03T10:46:28.039Z,99971.59
2023-04-03T10:49:36.035Z,99974.28
2023-04-03T10:52:41.957Z,99968.13
2023-04-03T10:55:49.207Z,99968.09
2023-04-03T10:58:55.359Z,99958.28
2023-04-03T11:02:00.691Z,99960.72
2023-04-03T11:05:06.136Z,99951.50
2023-04-03T11:08:13.118Z,99960.28
2023-04-03T11:11:17.260Z,99954.28
2023-04-03T11:14:23.530Z,99951.03
2023-04-03T11:17:29.749Z,99953.78
2023-04-03T11:20:34.532Z,99949.97
2023-04-03T11:23:48.868Z,99932.06
2023-04-03T11:26:52.496Z,99933.97
2023-04-03T11:29:54.594Z,99929.34
2023-04-03T11:33:17.163Z,99932.81
2023-04-03T11:36:26.705Z,99929.50
2023-04-03T11:39:33.430Z,99926.94
2023-04-03T11:42:37.343Z,99922.75
2023-04-03T11:45:50.922Z,99939.53
2023-04-03T11:48:54.230Z,99923.63
2023-04-03T11:51:58.016Z,99930.53
2023-04-03T11:54:59.590Z,99929.81
2023-04-03T11:58:04.943Z,99931.75
2023-04-03T12:01:07.747Z,99930.03
2023-04-03T12:04:13.798Z,99925.47
2023-04-03T12:07:19.042Z,99925.50
2023-04-03T12:10:31.834Z,99923.72
2023-04-03T12:13:34.268Z,99928.13
2023-04-03T12:16:43.783Z,99915.00
2023-04-03T12:19:47.494Z,99913.31
2023-04-03T12:23:05.148Z,99904.44
2023-04-03T12:26:23.901Z,99901.91
2023-04-03T12:29:29.819Z,99904.50
2023-04-03T12:33:05.697Z,99897.50
2023-04-03T12:36:12.392Z,99892.09
2023-04-03T12:39:24.682Z,99892.91
2023-04-03T12:42:35.804Z,99897.22
2023-04-03T12:45:42.729Z,99887.63
2023-04-03T12:48:49.262Z,99883.19
2023-04-03T12:51:53.617Z,99884.97
2023-04-03T12:54:55.863Z,99874.09
2023-04-03T12:58:14.091Z,99873.25
2023-04-03T13:01:19.350Z,99874.19
2023-04-03T13:04:21.180Z,99863.28
2023-04-03T13:07:23.762Z,99861.28
2023-04-03T13:10:25.415Z,99865.63
2023-04-03T13:13:28.848Z,99866.94
2023-04-03T13:16:30.615Z,99862.09
2023-04-03T13:19:32.412Z,99861.03
2023-04-03T13:22:40.406Z,99845.75
2023-04-03T13:25:43.427Z,99848.66
2023-04-03T13:28:48.481Z,99842.75
2023-04-03T13:31:53.445Z,99835.72
2023-04-03T13:34:55.776Z,99843.75
2023-04-03T13:38:00.170Z,99842.03
2023-04-03T13:41:04.182Z,99847.28
2023-04-03T13:44:24.711Z,99842.16
2023-04-03T13:47:43.354Z,99835.97
2023-04-03T13:50:52.892Z,99832.56
2023-04-03T13:53:55.638Z,99824.75
2023-04-03T13:56:58.677Z,99821.22
2023-04-03T14:00:00.774Z,99819.56
2023-04-03T14:03:12.529Z,99811.81
2023-04-03T14:06:16.524Z,99821.34
2023-04-03T14:09:18.890Z,99816.69
2023-04-03T14:12:31.327Z,99815.47
2023-04-03T14:15:33.931Z,99810.13
2023-04-03T14:18:37.803Z,99804.19
2023-04-03T14:21:39.390Z,99800.03
2023-04-03T14:24:41.463Z,99799.94
2023-04-03T14:27:44.336Z,99803.72
2023-04-03T14:30:46.725Z,99801.00
2023-04-03T14:33:50.041Z,99799.88
2023-04-03T14:36:53.422Z,99795.06
2023-04-03T14:39:55.356Z,99795.22
2023-04-03T14:42:58.449Z,99791.38
2023-04-03T14:46:00.260Z,99793.34
2023-04-03T14:49:03.761Z,99783.31
2023-04-03T14:52:05.424Z,99787.38
2023-04-03T14:55:07.508Z,99786.41
2023-04-03T14:58:09.895Z,99786.09
2023-04-03T15:01:11.770Z,99785.00
2023-04-03T15:04:15.592Z,99784.78
2023-04-03T15:07:17.524Z,99783.75
2023-04-03T15:10:20.457Z,99785.84
2023-04-03T15:13:22.602Z,99782.66
2023-04-03T15:16:30.320Z,99786.94
2023-04-03T15:19:37.003Z,99782.56
2023-04-03T15:22:41.400Z,99775.75
2023-04-03T15:25:43.805Z,99771.06
2023-04-03T15:28:45.807Z,99776.50
2023-04-03T15:31:47.572Z,99769.91
2023-04-03T15:34:51.424Z,99768.34
2023-04-03T15:37:55.316Z,99774.69
2023-04-03T15:40:57.131Z,99773.06
2023-04-03T15:43:58.687Z,99774.88
2023-04-03T15:47:00.736Z,99770.63
2023-04-03T15:50:06.956Z,99768.16
2023-04-03T15:53:09.797Z,99765.50
2023-04-03T15:56:12.889Z,99764.19
2023-04-03T15:59:14.648Z,99768.69
2023-04-03T16:02:16.277Z,99768.63
2023-04-03T16:05:19.945Z,99758.09
2023-04-03T16:08:23.000Z,99763.84
2023-04-03T16:11:24.570Z,99762.06
2023-04-03T16:14:26.102Z,99763.56
2023-04-03T16:17:28.383Z,99763.56
2023-04-03T16:20:31.777Z,99761.09
2023-04-03T16:23:33.417Z,99756.88
2023-04-03T16:26:35.088Z,99756.19
2023-04-03T16:29:37.307Z,99766.25
2023-04-03T16:32:40.031Z,99765.53
2023-04-03T16:35:44.264Z,99764.84
2023-04-03T16:38:45.822Z,99768.47
2023-04-03T16:41:47.542Z,99765.06
2023-04-03T16:44:49.320Z,99767.75
2023-04-03T16:47:51.180Z,99764.13
2023-04-03T16:50:54.499Z,99767.53
2023-04-03T16:53:56.327Z,99766.50
2023-04-03T16:56:58.430Z,99761.84
2023-04-03T17:00:00.008Z,99758.91
2023-04-03T17:03:04.817Z,99758.78
2023-04-03T17:06:07.887Z,99759.63
2023-04-03T17:09:10.388Z,99756.94
2023-04-03T17:12:11.976Z,99754.75
2023-04-03T17:15:13.600Z,99753.03
2023-04-03T17:18:15.772Z,99753.13
2023-04-03T17:21:18.859Z,99747.00
2023-04-03T17:24:20.523Z,99747.16
2023-04-03T17:27:22.185Z,99749.94
2023-04-03T17:30:24.600Z,99757.19
2023-04-03T17:33:26.687Z,99752.03
2023-04-03T17:36:29.936Z,99750.31
2023-04-03T17:39:31.649Z,99752.16
2023-04-03T17:42:33.571Z,99746.03
2023-04-03T17:45:35.229Z,99753.13
2023-04-03T17:48:37.666Z,99753.16
2023-04-03T17:51:40.964Z,99754.94
2023-04-03T17:54:42.828Z,99754.97
2023-04-03T17:57:44.618Z,99753.22
2023-04-03T18:00:46.306Z,99754.13
2023-04-03T18:03:49.069Z,99755.91
2023-04-03T18:06:53.706Z,99758.53
2023-04-03T18:09:56.412Z,99760.31
2023-04-03T18:12:58.225Z,99758.59
2023-04-03T18:15:59.899Z,99763.00
2023-04-03T18:19:21.296Z,99763.88
2023-04-03T18:22:25.441Z,99772.66
2023-04-03T18:25:27.048Z,99770.91
2023-04-03T18:28:29.635Z,99779.72
2023-04-03T18:31:33.234Z,99780.59
2023-04-03T18:34:34.847Z,99775.31
2023-04-03T18:37:38.842Z,99775.31
2023-04-03T18:40:42.473Z,99778.84
2023-04-03T18:43:44.403Z,99785.88
2023-04-03T18:46:46.431Z,99778.84
2023-04-03T18:49:48.029Z,99784.97
2023-04-03T18:52:51.007Z,99786.72
2023-04-03T18:55:52.608Z,99785.88
2023-04-03T18:58:54.445Z,99784.09
2023-04-03T19:01:56.158Z,99787.56
2023-04-03T19:04:58.031Z,99788.47
2023-04-03T19:08:01.143Z,99786.66
2023-04-03T19:11:02.789Z,99799.84
2023-04-03T19:14:15.836Z,99788.38
2023-04-03T19:17:17.987Z,99792.78
2023-04-03T19:20:20.019Z,99790.16
2023-04-03T19:23:23.906Z,99793.66
2023-04-03T19:26:27.577Z,99778.69
2023-04-03T19:29:30.279Z,99792.75
2023-04-03T19:32:31.980Z,99788.34
2023-04-03T19:35:33.797Z,99784.81
2023-04-03T19:38:36.948Z,99780.41
2023-04-03T19:41:41.916Z,99776.84
2023-04-03T19:44:43.828Z,99776.84
2023-04-03T19:47:45.679Z,99778.59
2023-04-03T19:50:47.334Z,99774.16
2023-04-03T19:53:50.419Z,99778.56
2023-04-03T19:56:52.305Z,99774.16
2023-04-03T19:59:54.073Z,99782.06
2023-04-03T20:02:56.722Z,99778.56
2023-04-03T20:05:58.425Z,99772.41
2023-04-03T20:09:04.711Z,99766.25
2023-04-03T20:12:09.485Z,99768.84
2023-04-03T20:15:11.470Z,99769.72
2023-04-03T20:18:18.167Z,99765.28
2023-04-03T20:21:19.918Z,99773.19
2023-04-03T20:24:22.919Z,99768.78
2023-04-03T20:27:24.927Z,99767.91
2023-04-03T20:30:26.515Z,99775.75
2023-04-03T20:33:28.276Z,99781.00
2023-04-03T20:36:31.214Z,99773.94
2023-04-03T20:39:34.441Z,99774.78
2023-04-03T20:42:35.999Z,99773.00
2023-04-03T20:45:37.937Z,99765.97
2023-04-03T20:48:41.690Z,99773.84
2023-04-03T20:51:44.070Z,99769.47
2023-04-03T20:54:47.371Z,99763.31
2023-04-03T20:57:54.540Z,99760.69
2023-04-03T21:00:56.567Z,99758.03
2023-04-03T21:04:02.595Z,99754.53
2023-04-03T21:07:23.068Z,99751.91
2023-04-03T21:10:43.561Z,99750.09
2023-04-03T21:14:06.524Z,99746.59
2023-04-03T21:17:08.351Z,99748.28
2023-04-03T21:20:11.202Z,99743.88
2023-04-03T21:23:12.932Z,99748.28
2023-04-03T21:26:14.478Z,99740.38
2023-04-03T21:29:16.599Z,99738.59
2023-04-03T21:32:18.122Z,99735.91
2023-04-03T21:35:21.446Z,99733.28
2023-04-03T21:38:23.218Z,99741.09
2023-04-03T21:41:24.728Z,99735.81
2023-04-03T21:44:29.138Z,99732.31
2023-04-03T21:47:30.891Z,99734.00
2023-04-03T21:50:33.914Z,99726.97
2023-04-03T21:53:36.179Z,99729.59
2023-04-03T21:56:37.710Z,99727.84
2023-04-03T21:59:39.555Z,99724.34
2023-04-03T22:02:41.260Z,99718.22
2023-04-03T22:05:44.324Z,99718.22
2023-04-03T22:08:46.044Z,99718.22
2023-04-03T22:11:48.933Z,99712.06
2023-04-03T22:14:50.700Z,99715.53
2023-04-03T22:17:52.429Z,99713.78
2023-04-03T22:20:56.076Z,99705.91
2023-04-03T22:23:58.560Z,99703.22
2023-04-03T22:27:00.431Z,99706.72
2023-04-03T22:30:02.094Z,99709.25
2023-04-03T22:33:03.767Z,99713.53
2023-04-03T22:36:07.354Z,99715.19
2023-04-03T22:39:10.681Z,99723.00
2023-04-03T22:42:12.156Z,99714.22
2023-04-03T22:45:14.199Z,99714.22
2023-04-03T22:48:18.622Z,99717.72
2023-04-03T22:51:21.690Z,99720.31
2023-04-03T22:54:23.241Z,99714.19
2023-04-03T22:57:25.105Z,99718.59
2023-04-03T23:00:28.197Z,99710.72
2023-04-03T23:03:29.701Z,99712.53
2023-04-03T23:06:34.095Z,99713.34
2023-04-03T23:13:07.974Z,99708.94
2023-04-03T23:16:09.775Z,99715.06
2023-04-03T23:19:11.396Z,99707.19
2023-04-03T23:22:15.068Z,99714.19
2023-04-03T23:25:16.615Z,99710.69
2023-04-03T23:28:18.787Z,99716.72
2023-04-03T23:31:20.346Z,99716.72
2023-04-03T23:34:22.261Z,99706.13
2023-04-03T23:37:26.027Z,99709.59
2023-04-03T23:40:28.203Z,99713.94
2023-04-03T23:43:31.168Z,99716.59
2023-04-03T23:46:35.664Z,99712.19
2023-04-03T23:49:37.234Z,99720.94
2023-04-03T23:52:40.096Z,99718.25
2023-04-03T23:55:42.103Z,99719.94
2023-04-03T23:58:43.809Z,99719.00
